Mindoro Star — V7RE6 — position and weather

sailwx.info

Track history (hours):
 
Tides and Currents Weather Stations Pressure Air Temp Water Temp Dewpoint Dewpoint Depression Visibility Wind Speed Wind Dir Waves Ship Positions

Mindoro Star

Last reported at 2016-Jun-30 04:26 UTC. Time now 2016-Jul-01 10:04 UTC.
Position N 33°23' W 125°16'.

Length 238 m; draft 11.4 m.

Type: Tanker. MMSI: 538003490.

Date/timePositionNaut miles runAvg speedWind from/ knotsBaromVisibWave heightAir tempDewpointWater temp
2016-Jun-30 04:26N 33°23' W 125°16'1 1.6
2016-Jun-30 03:33N 33°24' W 125°17'2 1.5
2016-Jun-30 02:33N 33°25' W 125°18'4 1.3
2016-Jun-29 23:27N 33°28' W 125°20'1 1.2
2016-Jun-29 22:15N 33°30' W 125°21'1 1.3
2016-Jun-29 21:33N 33°31' W 125°21'1 1.4
2016-Jun-29 20:32N 33°32' W 125°22'2 1.6
2016-Jun-29 19:31N 33°33' W 125°22'6 1.7
2016-Jun-29 16:10N 33°39' W 125°25'1 1.6
2016-Jun-29 15:32N 33°39' W 125°25'2 1.5
2016-Jun-29 14:32N 33°41' W 125°26'1 1.5
2016-Jun-29 13:33N 33°42' W 125°27'2 1.4
2016-Jun-29 12:26N 33°43' W 125°28'1 1.5
2016-Jun-29 11:29N 33°45' W 125°29'1 1.6
2016-Jun-29 10:33N 33°46' W 125°30'2 1.6
2016-Jun-29 09:27N 33°47' W 125°31'1 1.6
2016-Jun-29 08:33N 33°48' W 125°32'1 1.5
2016-Jun-29 07:33N 33°50' W 125°33'2 1.5
2016-Jun-29 06:32N 33°51' W 125°34'1 1.4
2016-Jun-29 05:33N 33°52' W 125°35'1 1.2
2016-Jun-29 04:33N 33°53' W 125°35'1 1.0
2016-Jun-29 03:33N 33°54' W 125°36'1 1.1
2016-Jun-29 02:33N 33°55' W 125°36'1 1.2
2016-Jun-29 01:33N 33°57' W 125°36'1 1.4
2016-Jun-29 00:33N 33°58' W 125°36'1 1.4
2016-Jun-28 23:33N 33°59' W 125°37'1 1.5
2016-Jun-28 22:33N 34°01' W 125°37'1 1.4
2016-Jun-28 21:33N 34°02' W 125°38'2 1.6
2016-Jun-28 20:33N 34°04' W 125°38'2 1.6
2016-Jun-28 19:33N 34°05' W 125°39'2 1.6
2016-Jun-28 18:33N 34°06' W 125°40'2 1.5
2016-Jun-28 17:22N 34°08' W 125°40'2 1.5
2016-Jun-28 16:06N 34°10' W 125°42'1 1.4
2016-Jun-28 15:29N 34°11' W 125°42'1 1.3
2016-Jun-28 14:28N 34°12' W 125°42'3 1.5
2016-Jun-28 12:12N 34°15' W 125°44'1 1.6
2016-Jun-28 11:33N 34°16' W 125°44'4 1.5
2016-Jun-28 09:04N 34°19' W 125°47'1 1.2
2016-Jun-28 08:33N 34°19' W 125°48'1 1.1
2016-Jun-28 07:32N 34°20' W 125°49'1 1.0
2016-Jun-28 06:33N 34°21' W 125°50'2 0.9
2016-Jun-28 04:33N 34°22' W 125°50'1 0.9
2016-Jun-28 03:33N 34°23' W 125°51'1 1.1
2016-Jun-28 02:33N 34°24' W 125°51'1 1.3
2016-Jun-28 01:33N 34°25' W 125°51'1 1.4
2016-Jun-28 00:33N 34°27' W 125°51'1 1.5
2016-Jun-27 23:33N 34°28' W 125°51'1 1.5
2016-Jun-27 22:33N 34°30' W 125°51'1 1.5
2016-Jun-27 21:33N 34°31' W 125°52'1 1.4
2016-Jun-27 20:33N 34°32' W 125°53'2 1.6
2016-Jun-27 19:33N 34°34' W 125°54'2 1.6
2016-Jun-27 18:33N 34°35' W 125°54'2 1.7
2016-Jun-27 17:33N 34°37' W 125°55'2 1.6
2016-Jun-27 16:33N 34°38' W 125°56'2 1.6
2016-Jun-27 15:33N 34°40' W 125°57'2 1.5
2016-Jun-27 14:33N 34°41' W 125°58'1 1.5
2016-Jun-27 13:33N 34°42' W 125°59'1 1.4
2016-Jun-27 12:33N 34°44' W 125°60'1 1.3
2016-Jun-27 11:33N 34°45' W 126°01'1 1.0
2016-Jun-27 10:33N 34°45' W 126°01'1 0.9
2016-Jun-27 09:33N 34°46' W 126°02'1 0.8
2016-Jun-27 08:33N 34°47' W 126°03'1 0.9
2016-Jun-27 07:33N 34°47' W 126°03'1 1.1
2016-Jun-27 06:33N 34°48' W 126°03'1 1.2
2016-Jun-27 05:33N 34°50' W 126°04'1 1.3
2016-Jun-27 04:33N 34°51' W 126°04'1 1.4
2016-Jun-27 03:33N 34°52' W 126°04'2 1.5
2016-Jun-27 02:33N 34°54' W 126°05'1 1.5
2016-Jun-27 01:33N 34°55' W 126°06'1 1.4
2016-Jun-27 00:33N 34°56' W 126°07'2 1.5
2016-Jun-26 23:33N 34°58' W 126°07'2 1.6
2016-Jun-26 22:33N 34°59' W 126°08'5 5.3
2016-Jun-26 21:33N 34°59' W 126°02'1111.1
2016-Jun-26 20:33N 34°58' W 125°48'5 4.8
2016-Jun-26 19:33N 34°57' W 125°42'2 1.6
2016-Jun-26 18:33N 34°58' W 125°44'2 1.5
2016-Jun-26 17:33N 34°59' W 125°45'2 1.6
2016-Jun-26 16:33N 35°00' W 125°47'2 1.6
2016-Jun-26 15:33N 35°01' W 125°48'1 1.5
2016-Jun-26 14:33N 35°02' W 125°50'1 1.4
2016-Jun-26 13:33N 35°03' W 125°51'1 1.1
2016-Jun-26 12:33N 35°04' W 125°52'1 1.0
2016-Jun-26 11:33N 35°04' W 125°53'1 0.9
2016-Jun-26 10:33N 35°05' W 125°54'1 1.0
2016-Jun-26 09:32N 35°06' W 125°55'1 1.0
2016-Jun-26 08:33N 35°07' W 125°55'1 1.2
2016-Jun-26 07:33N 35°08' W 125°56'1 1.4
2016-Jun-26 06:33N 35°09' W 125°57'1 1.5
2016-Jun-26 05:33N 35°10' W 125°58'135 9.0
2016-Jun-25 14:32N 33°09' W 124°44'1 1.5
2016-Jun-25 13:31N 33°10' W 124°45'2 1.4
2016-Jun-25 12:21N 33°12' W 124°46'1 1.3
2016-Jun-25 11:33N 33°13' W 124°47'1 1.3
2016-Jun-25 10:33N 33°14' W 124°47'1 1.4
2016-Jun-25 09:33N 33°15' W 124°48'1 1.5
2016-Jun-25 08:33N 33°16' W 124°49'9 1.7
2016-Jun-25 03:21N 33°25' W 124°52'1 1.7
2016-Jun-25 02:33N 33°26' W 124°53'6 1.5
2016-Jun-24 22:25N 33°32' W 124°56'1 1.3
2016-Jun-24 21:17N 33°33' W 124°57'1 1.1
2016-Jun-24 20:32N 33°34' W 124°57'1 1.2
2016-Jun-24 19:33N 33°35' W 124°58'3 1.1
2016-Jun-24 17:18N 33°37' W 124°59'1 1.0
2016-Jun-24 16:33N 33°38' W 124°59'1 1.0
2016-Jun-24 15:24N 33°39' W 125°00'2 1.0
2016-Jun-24 13:23N 33°41' W 125°01'1 1.2
2016-Jun-24 12:28N 33°42' W 125°01'1 1.4
2016-Jun-24 11:33N 33°43' W 125°02'5 1.2
2016-Jun-24 07:20N 33°48' W 125°03'1 1.2
2016-Jun-24 06:29N 33°49' W 125°04'2 1.1
2016-Jun-24 04:17N 33°51' W 125°05'1 1.2
2016-Jun-24 03:31N 33°52' W 125°06'1 1.2
2016-Jun-24 02:33N 33°53' W 125°06'1 1.2
2016-Jun-24 01:28N 33°54' W 125°07'1 1.3
2016-Jun-24 00:26N 33°55' W 125°08'1 1.3
2016-Jun-23 23:28N 33°56' W 125°08'2 1.3
2016-Jun-23 22:16N 33°58' W 125°09'1 1.1
2016-Jun-23 21:33N 33°58' W 125°10'1 1.0
2016-Jun-23 20:33N 33°59' W 125°11'1 0.8
2016-Jun-23 19:27N 33°60' W 125°12'1 0.6
2016-Jun-23 18:33N 34°00' W 125°12'1 0.7
2016-Jun-23 17:33N 34°01' W 125°12'1 0.9
2016-Jun-23 16:25N 34°02' W 125°12'1 1.1
2016-Jun-23 15:33N 34°03' W 125°12'1 1.2
2016-Jun-23 14:33N 34°04' W 125°12'2 1.4
2016-Jun-23 13:28N 34°06' W 125°13'1 1.5
2016-Jun-23 12:32N 34°07' W 125°13'2 1.4
2016-Jun-23 11:24N 34°08' W 125°13'1 1.4
2016-Jun-23 10:23N 34°10' W 125°14'1 1.4
2016-Jun-23 09:33N 34°11' W 125°15'1 1.4
2016-Jun-23 08:33N 34°12' W 125°16'1 1.3
2016-Jun-23 07:33N 34°13' W 125°17'3 1.3
2016-Jun-23 05:33N 34°15' W 125°18'1 1.2
2016-Jun-23 04:33N 34°16' W 125°19'1 1.1
2016-Jun-23 03:33N 34°17' W 125°20'1 1.0
2016-Jun-23 02:33N 34°18' W 125°20'1 1.0
2016-Jun-23 01:33N 34°19' W 125°21'1 1.1
2016-Jun-23 00:33N 34°20' W 125°21'1 1.1
2016-Jun-22 23:33N 34°21' W 125°22'1 1.1
2016-Jun-22 22:26N 34°22' W 125°23'1 1.1
2016-Jun-22 21:33N 34°23' W 125°23'1 1.2
2016-Jun-22 20:33N 34°24' W 125°24'1 1.1
2016-Jun-22 19:33N 34°25' W 125°24'1 1.1
2016-Jun-22 18:33N 34°26' W 125°25'1 1.2
2016-Jun-22 17:33N 34°27' W 125°25'1 1.4
2016-Jun-22 16:32N 34°28' W 125°26'1 1.5
2016-Jun-22 15:33N 34°30' W 125°27'2 1.5
2016-Jun-22 14:33N 34°31' W 125°27'1 1.5
2016-Jun-22 13:33N 34°33' W 125°28'1 1.4
2016-Jun-22 12:33N 34°34' W 125°29'1 1.4
2016-Jun-22 11:32N 34°35' W 125°30'1 1.4
2016-Jun-22 10:33N 34°36' W 125°31'2 1.4
2016-Jun-22 09:25N 34°38' W 125°32'1 1.4
2016-Jun-22 08:33N 34°38' W 125°33'1 1.4
2016-Jun-22 07:33N 34°40' W 125°34'1 1.3
2016-Jun-22 06:33N 34°41' W 125°35'1 1.2
2016-Jun-22 05:28N 34°42' W 125°35'1 1.3
2016-Jun-22 04:33N 34°43' W 125°36'2 1.3
2016-Jun-22 03:21N 34°44' W 125°37'1 1.3
2016-Jun-22 02:29N 34°45' W 125°38'2 1.2
2016-Jun-22 01:07N 34°47' W 125°39'1 1.2
2016-Jun-22 00:25N 34°47' W 125°39'1 1.3
2016-Jun-21 23:31N 34°48' W 125°40'1 1.3
2016-Jun-21 22:27N 34°50' W 125°40'1 1.4
2016-Jun-21 21:33N 34°51' W 125°41'1 1.4
2016-Jun-21 20:33N 34°52' W 125°41'1 1.4
2016-Jun-21 19:33N 34°54' W 125°42'2 1.5
2016-Jun-21 18:30N 34°55' W 125°42'2 1.6
2016-Jun-21 17:31N 34°57' W 125°43'2 1.8
2016-Jun-21 16:33N 34°58' W 125°44'2 2.0
2016-Jun-21 15:31N 35°00' W 125°44'2 1.8
2016-Jun-21 14:33N 35°02' W 125°45'2 1.8
2016-Jun-21 13:32N 35°03' W 125°46'2 1.8
2016-Jun-21 12:33N 35°05' W 125°48'2 1.8
2016-Jun-21 11:33N 35°06' W 125°49'2 1.8
2016-Jun-21 10:33N 35°08' W 125°50'2 1.7
2016-Jun-21 09:33N 35°09' W 125°52'2 1.5
2016-Jun-21 08:33N 35°10' W 125°53'2 1.5
2016-Jun-21 07:33N 35°12' W 125°54'1 1.4
2016-Jun-21 06:33N 35°13' W 125°55'3 1.5
2016-Jun-21 04:33N 35°15' W 125°57'4 4.2
2016-Jun-21 03:33N 35°11' W 125°59'1110.7
2016-Jun-21 02:33N 35°01' W 126°02'1110.8
2016-Jun-21 01:33N 34°50' W 126°05'1110.5
2016-Jun-21 00:32N 34°40' W 126°08'1110.2
2016-Jun-20 23:24N 34°29' W 126°11'910.2
2016-Jun-20 22:31N 34°20' W 126°13'1110.3
2016-Jun-20 21:28N 34°09' W 126°16'910.2
2016-Jun-20 20:33N 34°00' W 126°18'1110.4
2016-Jun-20 19:32N 33°50' W 126°21'1110.8
2016-Jun-20 18:32N 33°39' W 126°24'1111.0
2016-Jun-20 17:33N 33°29' W 126°26'1111.0
2016-Jun-20 16:33N 33°18' W 126°29'1111.0
2016-Jun-20 15:33N 33°07' W 126°32'6 5.4
2016-Jun-20 14:30N 33°01' W 126°32'2 1.5
2016-Jun-20 13:23N 33°03' W 126°31'1 1.4
2016-Jun-20 12:28N 33°04' W 126°30'3 1.3
2016-Jun-20 10:13N 33°06' W 126°28'1 1.4
2016-Jun-20 09:30N 33°07' W 126°27'2 1.3
2016-Jun-20 08:15N 33°08' W 126°26'1 1.2
2016-Jun-20 07:30N 33°09' W 126°25'1 1.2
2016-Jun-20 06:28N 33°10' W 126°24'1 1.0
2016-Jun-20 05:33N 33°10' W 126°23'  
Track history (hours):
 
Tides and Currents Weather Stations Pressure Air Temp Water Temp Dewpoint Dewpoint Depression Visibility Wind Speed Wind Dir Waves Ship Positions

Mindoro Star

Last reported at 2016-Jun-30 04:26 UTC. Time now 2016-Jul-01 10:04 UTC.
Position N 33°23' W 125°16'.

Length 238 m; draft 11.4 m.

Type: Tanker. MMSI: 538003490.

Date/timePositionNaut miles runAvg speedWind from/ knotsBaromVisibWave heightAir tempDewpointWater temp
2016-Jun-30 04:26N 33°23' W 125°16'1 1.6
2016-Jun-30 03:33N 33°24' W 125°17'2 1.5
2016-Jun-30 02:33N 33°25' W 125°18'4 1.3
2016-Jun-29 23:27N 33°28' W 125°20'1 1.2
2016-Jun-29 22:15N 33°30' W 125°21'1 1.3
2016-Jun-29 21:33N 33°31' W 125°21'1 1.4
2016-Jun-29 20:32N 33°32' W 125°22'2 1.6
2016-Jun-29 19:31N 33°33' W 125°22'6 1.7
2016-Jun-29 16:10N 33°39' W 125°25'1 1.6
2016-Jun-29 15:32N 33°39' W 125°25'2 1.5
2016-Jun-29 14:32N 33°41' W 125°26'1 1.5
2016-Jun-29 13:33N 33°42' W 125°27'2 1.4
2016-Jun-29 12:26N 33°43' W 125°28'1 1.5
2016-Jun-29 11:29N 33°45' W 125°29'1 1.6
2016-Jun-29 10:33N 33°46' W 125°30'2 1.6
2016-Jun-29 09:27N 33°47' W 125°31'1 1.6
2016-Jun-29 08:33N 33°48' W 125°32'1 1.5
2016-Jun-29 07:33N 33°50' W 125°33'2 1.5
2016-Jun-29 06:32N 33°51' W 125°34'1 1.4
2016-Jun-29 05:33N 33°52' W 125°35'1 1.2
2016-Jun-29 04:33N 33°53' W 125°35'1 1.0
2016-Jun-29 03:33N 33°54' W 125°36'1 1.1
2016-Jun-29 02:33N 33°55' W 125°36'1 1.2
2016-Jun-29 01:33N 33°57' W 125°36'1 1.4
2016-Jun-29 00:33N 33°58' W 125°36'1 1.4
2016-Jun-28 23:33N 33°59' W 125°37'1 1.5
2016-Jun-28 22:33N 34°01' W 125°37'1 1.4
2016-Jun-28 21:33N 34°02' W 125°38'2 1.6
2016-Jun-28 20:33N 34°04' W 125°38'2 1.6
2016-Jun-28 19:33N 34°05' W 125°39'2 1.6
2016-Jun-28 18:33N 34°06' W 125°40'2 1.5
2016-Jun-28 17:22N 34°08' W 125°40'2 1.5
2016-Jun-28 16:06N 34°10' W 125°42'1 1.4
2016-Jun-28 15:29N 34°11' W 125°42'1 1.3
2016-Jun-28 14:28N 34°12' W 125°42'3 1.5
2016-Jun-28 12:12N 34°15' W 125°44'1 1.6
2016-Jun-28 11:33N 34°16' W 125°44'4 1.5
2016-Jun-28 09:04N 34°19' W 125°47'1 1.2
2016-Jun-28 08:33N 34°19' W 125°48'1 1.1
2016-Jun-28 07:32N 34°20' W 125°49'1 1.0
2016-Jun-28 06:33N 34°21' W 125°50'2 0.9
2016-Jun-28 04:33N 34°22' W 125°50'1 0.9
2016-Jun-28 03:33N 34°23' W 125°51'1 1.1
2016-Jun-28 02:33N 34°24' W 125°51'1 1.3
2016-Jun-28 01:33N 34°25' W 125°51'1 1.4
2016-Jun-28 00:33N 34°27' W 125°51'1 1.5
2016-Jun-27 23:33N 34°28' W 125°51'1 1.5
2016-Jun-27 22:33N 34°30' W 125°51'1 1.5
2016-Jun-27 21:33N 34°31' W 125°52'1 1.4
2016-Jun-27 20:33N 34°32' W 125°53'2 1.6
2016-Jun-27 19:33N 34°34' W 125°54'2 1.6
2016-Jun-27 18:33N 34°35' W 125°54'2 1.7
2016-Jun-27 17:33N 34°37' W 125°55'2 1.6
2016-Jun-27 16:33N 34°38' W 125°56'2 1.6
2016-Jun-27 15:33N 34°40' W 125°57'2 1.5
2016-Jun-27 14:33N 34°41' W 125°58'1 1.5
2016-Jun-27 13:33N 34°42' W 125°59'1 1.4
2016-Jun-27 12:33N 34°44' W 125°60'1 1.3
2016-Jun-27 11:33N 34°45' W 126°01'1 1.0
2016-Jun-27 10:33N 34°45' W 126°01'1 0.9
2016-Jun-27 09:33N 34°46' W 126°02'1 0.8
2016-Jun-27 08:33N 34°47' W 126°03'1 0.9
2016-Jun-27 07:33N 34°47' W 126°03'1 1.1
2016-Jun-27 06:33N 34°48' W 126°03'1 1.2
2016-Jun-27 05:33N 34°50' W 126°04'1 1.3
2016-Jun-27 04:33N 34°51' W 126°04'1 1.4
2016-Jun-27 03:33N 34°52' W 126°04'2 1.5
2016-Jun-27 02:33N 34°54' W 126°05'1 1.5
2016-Jun-27 01:33N 34°55' W 126°06'1 1.4
2016-Jun-27 00:33N 34°56' W 126°07'2 1.5
2016-Jun-26 23:33N 34°58' W 126°07'2 1.6
2016-Jun-26 22:33N 34°59' W 126°08'5 5.3
2016-Jun-26 21:33N 34°59' W 126°02'1111.1
2016-Jun-26 20:33N 34°58' W 125°48'5 4.8
2016-Jun-26 19:33N 34°57' W 125°42'2 1.6
2016-Jun-26 18:33N 34°58' W 125°44'2 1.5
2016-Jun-26 17:33N 34°59' W 125°45'2 1.6
2016-Jun-26 16:33N 35°00' W 125°47'2 1.6
2016-Jun-26 15:33N 35°01' W 125°48'1 1.5
2016-Jun-26 14:33N 35°02' W 125°50'1 1.4
2016-Jun-26 13:33N 35°03' W 125°51'1 1.1
2016-Jun-26 12:33N 35°04' W 125°52'1 1.0
2016-Jun-26 11:33N 35°04' W 125°53'1 0.9
2016-Jun-26 10:33N 35°05' W 125°54'1 1.0
2016-Jun-26 09:32N 35°06' W 125°55'1 1.0
2016-Jun-26 08:33N 35°07' W 125°55'1 1.2
2016-Jun-26 07:33N 35°08' W 125°56'1 1.4
2016-Jun-26 06:33N 35°09' W 125°57'1 1.5
2016-Jun-26 05:33N 35°10' W 125°58'135 9.0
2016-Jun-25 14:32N 33°09' W 124°44'1 1.5
2016-Jun-25 13:31N 33°10' W 124°45'2 1.4
2016-Jun-25 12:21N 33°12' W 124°46'1 1.3
2016-Jun-25 11:33N 33°13' W 124°47'1 1.3
2016-Jun-25 10:33N 33°14' W 124°47'1 1.4
2016-Jun-25 09:33N 33°15' W 124°48'1 1.5
2016-Jun-25 08:33N 33°16' W 124°49'9 1.7
2016-Jun-25 03:21N 33°25' W 124°52'1 1.7
2016-Jun-25 02:33N 33°26' W 124°53'6 1.5
2016-Jun-24 22:25N 33°32' W 124°56'1 1.3
2016-Jun-24 21:17N 33°33' W 124°57'1 1.1
2016-Jun-24 20:32N 33°34' W 124°57'1 1.2
2016-Jun-24 19:33N 33°35' W 124°58'3 1.1
2016-Jun-24 17:18N 33°37' W 124°59'1 1.0
2016-Jun-24 16:33N 33°38' W 124°59'1 1.0
2016-Jun-24 15:24N 33°39' W 125°00'2 1.0
2016-Jun-24 13:23N 33°41' W 125°01'1 1.2
2016-Jun-24 12:28N 33°42' W 125°01'1 1.4
2016-Jun-24 11:33N 33°43' W 125°02'5 1.2
2016-Jun-24 07:20N 33°48' W 125°03'1 1.2
2016-Jun-24 06:29N 33°49' W 125°04'2 1.1
2016-Jun-24 04:17N 33°51' W 125°05'1 1.2
2016-Jun-24 03:31N 33°52' W 125°06'1 1.2
2016-Jun-24 02:33N 33°53' W 125°06'1 1.2
2016-Jun-24 01:28N 33°54' W 125°07'1 1.3
2016-Jun-24 00:26N 33°55' W 125°08'1 1.3
2016-Jun-23 23:28N 33°56' W 125°08'2 1.3
2016-Jun-23 22:16N 33°58' W 125°09'1 1.1
2016-Jun-23 21:33N 33°58' W 125°10'1 1.0
2016-Jun-23 20:33N 33°59' W 125°11'1 0.8
2016-Jun-23 19:27N 33°60' W 125°12'1 0.6
2016-Jun-23 18:33N 34°00' W 125°12'1 0.7
2016-Jun-23 17:33N 34°01' W 125°12'1 0.9
2016-Jun-23 16:25N 34°02' W 125°12'1 1.1
2016-Jun-23 15:33N 34°03' W 125°12'1 1.2
2016-Jun-23 14:33N 34°04' W 125°12'2 1.4
2016-Jun-23 13:28N 34°06' W 125°13'1 1.5
2016-Jun-23 12:32N 34°07' W 125°13'2 1.4
2016-Jun-23 11:24N 34°08' W 125°13'1 1.4
2016-Jun-23 10:23N 34°10' W 125°14'1 1.4
2016-Jun-23 09:33N 34°11' W 125°15'1 1.4
2016-Jun-23 08:33N 34°12' W 125°16'1 1.3
2016-Jun-23 07:33N 34°13' W 125°17'3 1.3
2016-Jun-23 05:33N 34°15' W 125°18'1 1.2
2016-Jun-23 04:33N 34°16' W 125°19'1 1.1
2016-Jun-23 03:33N 34°17' W 125°20'1 1.0
2016-Jun-23 02:33N 34°18' W 125°20'1 1.0
2016-Jun-23 01:33N 34°19' W 125°21'1 1.1
2016-Jun-23 00:33N 34°20' W 125°21'1 1.1
2016-Jun-22 23:33N 34°21' W 125°22'1 1.1
2016-Jun-22 22:26N 34°22' W 125°23'1 1.1
2016-Jun-22 21:33N 34°23' W 125°23'1 1.2
2016-Jun-22 20:33N 34°24' W 125°24'1 1.1
2016-Jun-22 19:33N 34°25' W 125°24'1 1.1
2016-Jun-22 18:33N 34°26' W 125°25'1 1.2
2016-Jun-22 17:33N 34°27' W 125°25'1 1.4
2016-Jun-22 16:32N 34°28' W 125°26'1 1.5
2016-Jun-22 15:33N 34°30' W 125°27'2 1.5
2016-Jun-22 14:33N 34°31' W 125°27'1 1.5
2016-Jun-22 13:33N 34°33' W 125°28'1 1.4
2016-Jun-22 12:33N 34°34' W 125°29'1 1.4
2016-Jun-22 11:32N 34°35' W 125°30'1 1.4
2016-Jun-22 10:33N 34°36' W 125°31'2 1.4
2016-Jun-22 09:25N 34°38' W 125°32'1 1.4
2016-Jun-22 08:33N 34°38' W 125°33'1 1.4
2016-Jun-22 07:33N 34°40' W 125°34'1 1.3
2016-Jun-22 06:33N 34°41' W 125°35'1 1.2
2016-Jun-22 05:28N 34°42' W 125°35'1 1.3
2016-Jun-22 04:33N 34°43' W 125°36'2 1.3
2016-Jun-22 03:21N 34°44' W 125°37'1 1.3
2016-Jun-22 02:29N 34°45' W 125°38'2 1.2
2016-Jun-22 01:07N 34°47' W 125°39'1 1.2
2016-Jun-22 00:25N 34°47' W 125°39'1 1.3
2016-Jun-21 23:31N 34°48' W 125°40'1 1.3
2016-Jun-21 22:27N 34°50' W 125°40'1 1.4
2016-Jun-21 21:33N 34°51' W 125°41'1 1.4
2016-Jun-21 20:33N 34°52' W 125°41'1 1.4
2016-Jun-21 19:33N 34°54' W 125°42'2 1.5
2016-Jun-21 18:30N 34°55' W 125°42'2 1.6
2016-Jun-21 17:31N 34°57' W 125°43'2 1.8
2016-Jun-21 16:33N 34°58' W 125°44'2 2.0
2016-Jun-21 15:31N 35°00' W 125°44'2 1.8
2016-Jun-21 14:33N 35°02' W 125°45'2 1.8
2016-Jun-21 13:32N 35°03' W 125°46'2 1.8
2016-Jun-21 12:33N 35°05' W 125°48'2 1.8
2016-Jun-21 11:33N 35°06' W 125°49'2 1.8
2016-Jun-21 10:33N 35°08' W 125°50'2 1.7
2016-Jun-21 09:33N 35°09' W 125°52'2 1.5
2016-Jun-21 08:33N 35°10' W 125°53'2 1.5
2016-Jun-21 07:33N 35°12' W 125°54'1 1.4
2016-Jun-21 06:33N 35°13' W 125°55'3 1.5
2016-Jun-21 04:33N 35°15' W 125°57'4 4.2
2016-Jun-21 03:33N 35°11' W 125°59'1110.7
2016-Jun-21 02:33N 35°01' W 126°02'1110.8
2016-Jun-21 01:33N 34°50' W 126°05'1110.5
2016-Jun-21 00:32N 34°40' W 126°08'1110.2
2016-Jun-20 23:24N 34°29' W 126°11'910.2
2016-Jun-20 22:31N 34°20' W 126°13'1110.3
2016-Jun-20 21:28N 34°09' W 126°16'910.2
2016-Jun-20 20:33N 34°00' W 126°18'1110.4
2016-Jun-20 19:32N 33°50' W 126°21'1110.8
2016-Jun-20 18:32N 33°39' W 126°24'1111.0
2016-Jun-20 17:33N 33°29' W 126°26'1111.0
2016-Jun-20 16:33N 33°18' W 126°29'1111.0
2016-Jun-20 15:33N 33°07' W 126°32'6 5.4
2016-Jun-20 14:30N 33°01' W 126°32'2 1.5
2016-Jun-20 13:23N 33°03' W 126°31'1 1.4
2016-Jun-20 12:28N 33°04' W 126°30'3 1.3
2016-Jun-20 10:13N 33°06' W 126°28'1 1.4
2016-Jun-20 09:30N 33°07' W 126°27'2 1.3
2016-Jun-20 08:15N 33°08' W 126°26'1 1.2
2016-Jun-20 07:30N 33°09' W 126°25'1 1.2
2016-Jun-20 06:28N 33°10' W 126°24'1 1.0
2016-Jun-20 05:33N 33°10' W 126°23'  

Dump ship's entire track history